sensor_id;sensor_type;location;lat;lon;timestamp;P1;durP1;ratioP1;P2;durP2;ratioP2
80930;SDS011;70388;42.698;23.324;2024-01-25T00:01:17;41.10;;;23.45;;
80930;SDS011;70388;42.698;23.324;2024-01-25T00:03:42;48.33;;;24.50;;
80930;SDS011;70388;42.698;23.324;2024-01-25T00:06:08;37.75;;;21.95;;
80930;SDS011;70388;42.698;23.324;2024-01-25T00:08:34;43.50;;;23.80;;
80930;SDS011;70388;42.698;23.324;2024-01-25T00:11:03;39.40;;;23.23;;
80930;SDS011;70388;42.698;23.324;2024-01-25T00:13:29;35.90;;;20.38;;
80930;SDS011;70388;42.698;23.324;2024-01-25T00:15:55;38.00;;;20.45;;
80930;SDS011;70388;42.698;23.324;2024-01-25T00:18:21;29.50;;;19.33;;
80930;SDS011;70388;42.698;23.324;2024-01-25T00:20:47;33.45;;;18.90;;
80930;SDS011;70388;42.698;23.324;2024-01-25T00:23:12;30.05;;;17.38;;
80930;SDS011;70388;42.698;23.324;2024-01-25T00:25:38;35.45;;;17.67;;
80930;SDS011;70388;42.698;23.324;2024-01-25T00:28:04;32.75;;;17.88;;
80930;SDS011;70388;42.698;23.324;2024-01-25T00:30:30;29.80;;;17.63;;
80930;SDS011;70388;42.698;23.324;2024-01-25T00:32:56;28.63;;;17.13;;
80930;SDS011;70388;42.698;23.324;2024-01-25T00:35:23;34.17;;;19.90;;
80930;SDS011;70388;42.698;23.324;2024-01-25T00:37:49;32.40;;;18.15;;
80930;SDS011;70388;42.698;23.324;2024-01-25T00:40:16;30.60;;;16.73;;
80930;SDS011;70388;42.698;23.324;2024-01-25T00:42:46;29.98;;;18.05;;
80930;SDS011;70388;42.698;23.324;2024-01-25T00:45:22;23.38;;;16.20;;
80930;SDS011;70388;42.698;23.324;2024-01-25T00:47:49;28.63;;;15.80;;
80930;SDS011;70388;42.698;23.324;2024-01-25T00:50:16;29.55;;;18.63;;
80930;SDS011;70388;42.698;23.324;2024-01-25T00:52:44;29.10;;;16.13;;
80930;SDS011;70388;42.698;23.324;2024-01-25T00:55:10;30.30;;;18.35;;
80930;SDS011;70388;42.698;23.324;2024-01-25T00:57:37;30.45;;;16.90;;
80930;SDS011;70388;42.698;23.324;2024-01-25T01:00:03;31.70;;;16.77;;
80930;SDS011;70388;42.698;23.324;2024-01-25T01:02:30;33.65;;;18.65;;
80930;SDS011;70388;42.698;23.324;2024-01-25T01:05:08;29.83;;;16.92;;
80930;SDS011;70388;42.698;23.324;2024-01-25T01:07:34;29.35;;;16.90;;
80930;SDS011;70388;42.698;23.324;2024-01-25T01:10:00;29.55;;;17.25;;
80930;SDS011;70388;42.698;23.324;2024-01-25T01:12:26;28.08;;;16.83;;
80930;SDS011;70388;42.698;23.324;2024-01-25T01:14:52;26.23;;;15.43;;
80930;SDS011;70388;42.698;23.324;2024-01-25T01:17:17;25.48;;;14.75;;
80930;SDS011;70388;42.698;23.324;2024-01-25T01:19:43;18.00;;;11.23;;
80930;SDS011;70388;42.698;23.324;2024-01-25T01:22:09;19.30;;;10.40;;
80930;SDS011;70388;42.698;23.324;2024-01-25T01:24:35;14.25;;;8.40;;
80930;SDS011;70388;42.698;23.324;2024-01-25T01:27:01;17.23;;;9.48;;
80930;SDS011;70388;42.698;23.324;2024-01-25T01:29:27;14.00;;;9.07;;
80930;SDS011;70388;42.698;23.324;2024-01-25T01:31:53;18.42;;;9.80;;
80930;SDS011;70388;42.698;23.324;2024-01-25T01:34:18;17.73;;;8.75;;
80930;SDS011;70388;42.698;23.324;2024-01-25T01:36:44;13.05;;;8.60;;
80930;SDS011;70388;42.698;23.324;2024-01-25T01:39:10;14.13;;;8.73;;
80930;SDS011;70388;42.698;23.324;2024-01-25T01:41:36;16.38;;;8.75;;
80930;SDS011;70388;42.698;23.324;2024-01-25T01:44:02;14.90;;;9.20;;
80930;SDS011;70388;42.698;23.324;2024-01-25T01:46:34;17.65;;;9.70;;
80930;SDS011;70388;42.698;23.324;2024-01-25T01:49:12;17.40;;;9.85;;
80930;SDS011;70388;42.698;23.324;2024-01-25T01:51:42;20.05;;;9.95;;
80930;SDS011;70388;42.698;23.324;2024-01-25T01:54:09;24.42;;;12.80;;
80930;SDS011;70388;42.698;23.324;2024-01-25T01:56:35;20.65;;;12.82;;
80930;SDS011;70388;42.698;23.324;2024-01-25T01:59:02;21.50;;;13.43;;
80930;SDS011;70388;42.698;23.324;2024-01-25T02:01:30;17.52;;;12.10;;
80930;SDS011;70388;42.698;23.324;2024-01-25T02:03:56;23.75;;;12.77;;
80930;SDS011;70388;42.698;23.324;2024-01-25T02:06:25;20.90;;;13.10;;
80930;SDS011;70388;42.698;23.324;2024-01-25T02:08:51;21.20;;;12.88;;
80930;SDS011;70388;42.698;23.324;2024-01-25T02:11:23;27.88;;;14.32;;
80930;SDS011;70388;42.698;23.324;2024-01-25T02:13:52;22.35;;;12.23;;
80930;SDS011;70388;42.698;23.324;2024-01-25T02:16:18;29.58;;;14.35;;
80930;SDS011;70388;42.698;23.324;2024-01-25T02:18:45;27.48;;;14.68;;
80930;SDS011;70388;42.698;23.324;2024-01-25T02:21:12;30.02;;;15.82;;
80930;SDS011;70388;42.698;23.324;2024-01-25T02:23:38;25.00;;;15.10;;
80930;SDS011;70388;42.698;23.324;2024-01-25T02:26:04;29.23;;;17.23;;
80930;SDS011;70388;42.698;23.324;2024-01-25T02:28:29;25.75;;;16.20;;
80930;SDS011;70388;42.698;23.324;2024-01-25T02:30:55;24.08;;;15.35;;
80930;SDS011;70388;42.698;23.324;2024-01-25T02:33:22;27.05;;;15.25;;
80930;SDS011;70388;42.698;23.324;2024-01-25T02:35:47;25.08;;;12.20;;
80930;SDS011;70388;42.698;23.324;2024-01-25T02:38:13;18.75;;;11.07;;
80930;SDS011;70388;42.698;23.324;2024-01-25T02:40:39;16.92;;;9.82;;
80930;SDS011;70388;42.698;23.324;2024-01-25T02:43:05;15.18;;;9.13;;
80930;SDS011;70388;42.698;23.324;2024-01-25T02:45:31;12.10;;;7.07;;
80930;SDS011;70388;42.698;23.324;2024-01-25T02:47:56;13.27;;;7.32;;
80930;SDS011;70388;42.698;23.324;2024-01-25T02:50:22;13.23;;;6.75;;
80930;SDS011;70388;42.698;23.324;2024-01-25T02:52:48;11.93;;;7.13;;
80930;SDS011;70388;42.698;23.324;2024-01-25T02:55:14;13.93;;;8.60;;
80930;SDS011;70388;42.698;23.324;2024-01-25T02:57:43;15.32;;;8.60;;
80930;SDS011;70388;42.698;23.324;2024-01-25T03:00:09;13.65;;;7.10;;
80930;SDS011;70388;42.698;23.324;2024-01-25T03:02:35;13.93;;;6.93;;
80930;SDS011;70388;42.698;23.324;2024-01-25T03:05:00;11.82;;;6.60;;
80930;SDS011;70388;42.698;23.324;2024-01-25T03:07:26;11.95;;;7.22;;
80930;SDS011;70388;42.698;23.324;2024-01-25T03:09:52;8.77;;;5.18;;
80930;SDS011;70388;42.698;23.324;2024-01-25T03:12:18;5.57;;;3.60;;
80930;SDS011;70388;42.698;23.324;2024-01-25T03:14:44;4.68;;;3.20;;
80930;SDS011;70388;42.698;23.324;2024-01-25T03:17:10;7.13;;;3.25;;
80930;SDS011;70388;42.698;23.324;2024-01-25T03:19:37;6.88;;;3.33;;
80930;SDS011;70388;42.698;23.324;2024-01-25T03:22:03;5.75;;;3.13;;
80930;SDS011;70388;42.698;23.324;2024-01-25T03:24:29;3.05;;;2.30;;
80930;SDS011;70388;42.698;23.324;2024-01-25T03:26:55;4.28;;;2.45;;
80930;SDS011;70388;42.698;23.324;2024-01-25T03:29:20;3.03;;;2.13;;
80930;SDS011;70388;42.698;23.324;2024-01-25T03:31:46;4.07;;;2.60;;
80930;SDS011;70388;42.698;23.324;2024-01-25T03:34:12;4.35;;;2.60;;
80930;SDS011;70388;42.698;23.324;2024-01-25T03:36:38;4.25;;;2.67;;
80930;SDS011;70388;42.698;23.324;2024-01-25T03:39:05;3.28;;;2.50;;
80930;SDS011;70388;42.698;23.324;2024-01-25T03:41:32;3.38;;;2.30;;
80930;SDS011;70388;42.698;23.324;2024-01-25T03:43:58;4.30;;;2.00;;
80930;SDS011;70388;42.698;23.324;2024-01-25T03:46:23;2.33;;;2.03;;
80930;SDS011;70388;42.698;23.324;2024-01-25T03:48:49;3.97;;;2.65;;
80930;SDS011;70388;42.698;23.324;2024-01-25T03:51:15;4.05;;;2.50;;
80930;SDS011;70388;42.698;23.324;2024-01-25T03:53:41;4.57;;;2.20;;
80930;SDS011;70388;42.698;23.324;2024-01-25T03:56:14;4.97;;;2.75;;
80930;SDS011;70388;42.698;23.324;2024-01-25T03:58:42;3.28;;;2.15;;
80930;SDS011;70388;42.698;23.324;2024-01-25T04:01:09;3.42;;;2.40;;
80930;SDS011;70388;42.698;23.324;2024-01-25T04:03:35;7.00;;;2.97;;
80930;SDS011;70388;42.698;23.324;2024-01-25T04:06:01;2.97;;;2.45;;
80930;SDS011;70388;42.698;23.324;2024-01-25T04:08:27;3.53;;;2.35;;
80930;SDS011;70388;42.698;23.324;2024-01-25T04:10:52;5.40;;;2.78;;
80930;SDS011;70388;42.698;23.324;2024-01-25T04:13:18;7.20;;;3.17;;
80930;SDS011;70388;42.698;23.324;2024-01-25T04:15:44;10.48;;;4.30;;
80930;SDS011;70388;42.698;23.324;2024-01-25T04:18:09;6.85;;;3.97;;
80930;SDS011;70388;42.698;23.324;2024-01-25T04:20:35;8.30;;;4.47;;
80930;SDS011;70388;42.698;23.324;2024-01-25T04:23:01;10.00;;;4.97;;
80930;SDS011;70388;42.698;23.324;2024-01-25T04:25:27;9.25;;;4.43;;
80930;SDS011;70388;42.698;23.324;2024-01-25T04:27:53;7.88;;;4.45;;
80930;SDS011;70388;42.698;23.324;2024-01-25T04:30:18;7.18;;;4.07;;
80930;SDS011;70388;42.698;23.324;2024-01-25T04:32:44;7.63;;;4.47;;
80930;SDS011;70388;42.698;23.324;2024-01-25T04:35:10;9.00;;;4.47;;
80930;SDS011;70388;42.698;23.324;2024-01-25T04:37:36;5.13;;;4.10;;
80930;SDS011;70388;42.698;23.324;2024-01-25T04:40:02;8.43;;;4.20;;
80930;SDS011;70388;42.698;23.324;2024-01-25T04:42:28;6.85;;;4.45;;
80930;SDS011;70388;42.698;23.324;2024-01-25T04:44:54;8.52;;;4.60;;
80930;SDS011;70388;42.698;23.324;2024-01-25T04:47:19;7.30;;;4.85;;
80930;SDS011;70388;42.698;23.324;2024-01-25T04:49:45;10.63;;;4.72;;
80930;SDS011;70388;42.698;23.324;2024-01-25T04:52:11;11.13;;;4.97;;
80930;SDS011;70388;42.698;23.324;2024-01-25T04:54:37;9.20;;;4.78;;
80930;SDS011;70388;42.698;23.324;2024-01-25T04:57:03;6.97;;;4.50;;
80930;SDS011;70388;42.698;23.324;2024-01-25T04:59:32;7.13;;;4.25;;
80930;SDS011;70388;42.698;23.324;2024-01-25T05:01:58;5.88;;;4.53;;
80930;SDS011;70388;42.698;23.324;2024-01-25T05:04:24;8.68;;;4.82;;
80930;SDS011;70388;42.698;23.324;2024-01-25T05:06:50;8.55;;;4.95;;
80930;SDS011;70388;42.698;23.324;2024-01-25T05:09:16;6.60;;;4.40;;
80930;SDS011;70388;42.698;23.324;2024-01-25T05:11:42;9.32;;;4.70;;
80930;SDS011;70388;42.698;23.324;2024-01-25T05:14:08;10.55;;;5.43;;
80930;SDS011;70388;42.698;23.324;2024-01-25T05:16:33;7.75;;;4.55;;
80930;SDS011;70388;42.698;23.324;2024-01-25T05:19:00;10.90;;;5.32;;
80930;SDS011;70388;42.698;23.324;2024-01-25T05:21:26;7.57;;;5.00;;
80930;SDS011;70388;42.698;23.324;2024-01-25T05:23:52;8.32;;;4.70;;
80930;SDS011;70388;42.698;23.324;2024-01-25T05:26:18;8.57;;;4.78;;
80930;SDS011;70388;42.698;23.324;2024-01-25T05:28:44;8.00;;;4.53;;
80930;SDS011;70388;42.698;23.324;2024-01-25T05:31:10;8.25;;;4.53;;
80930;SDS011;70388;42.698;23.324;2024-01-25T05:33:38;7.07;;;4.18;;
80930;SDS011;70388;42.698;23.324;2024-01-25T05:36:04;6.97;;;4.07;;
80930;SDS011;70388;42.698;23.324;2024-01-25T05:38:31;8.93;;;4.35;;
80930;SDS011;70388;42.698;23.324;2024-01-25T05:40:57;7.53;;;4.07;;
80930;SDS011;70388;42.698;23.324;2024-01-25T05:43:23;7.45;;;3.92;;
80930;SDS011;70388;42.698;23.324;2024-01-25T05:45:49;5.45;;;3.70;;
80930;SDS011;70388;42.698;23.324;2024-01-25T05:48:15;6.88;;;4.22;;
80930;SDS011;70388;42.698;23.324;2024-01-25T05:50:41;5.05;;;3.47;;
80930;SDS011;70388;42.698;23.324;2024-01-25T05:53:07;6.68;;;3.92;;
80930;SDS011;70388;42.698;23.324;2024-01-25T05:55:32;4.43;;;2.97;;
80930;SDS011;70388;42.698;23.324;2024-01-25T05:57:58;5.18;;;3.08;;
80930;SDS011;70388;42.698;23.324;2024-01-25T06:00:24;8.57;;;3.40;;
80930;SDS011;70388;42.698;23.324;2024-01-25T06:02:49;5.70;;;3.47;;
80930;SDS011;70388;42.698;23.324;2024-01-25T06:05:15;6.38;;;3.30;;
80930;SDS011;70388;42.698;23.324;2024-01-25T06:07:41;5.63;;;3.10;;
80930;SDS011;70388;42.698;23.324;2024-01-25T06:10:07;6.35;;;3.65;;
80930;SDS011;70388;42.698;23.324;2024-01-25T06:12:33;5.68;;;3.40;;
80930;SDS011;70388;42.698;23.324;2024-01-25T06:14:59;8.32;;;3.85;;
80930;SDS011;70388;42.698;23.324;2024-01-25T06:17:25;6.88;;;4.07;;
80930;SDS011;70388;42.698;23.324;2024-01-25T06:19:51;5.82;;;4.00;;
80930;SDS011;70388;42.698;23.324;2024-01-25T06:22:16;7.00;;;3.65;;
80930;SDS011;70388;42.698;23.324;2024-01-25T06:24:42;6.82;;;4.00;;
80930;SDS011;70388;42.698;23.324;2024-01-25T06:27:11;8.80;;;4.18;;
80930;SDS011;70388;42.698;23.324;2024-01-25T06:29:37;10.32;;;3.78;;
80930;SDS011;70388;42.698;23.324;2024-01-25T06:32:03;7.70;;;4.20;;
80930;SDS011;70388;42.698;23.324;2024-01-25T06:34:29;9.60;;;4.18;;
80930;SDS011;70388;42.698;23.324;2024-01-25T06:36:54;9.65;;;4.13;;
80930;SDS011;70388;42.698;23.324;2024-01-25T06:39:20;7.32;;;3.88;;
80930;SDS011;70388;42.698;23.324;2024-01-25T06:41:46;7.95;;;4.50;;
80930;SDS011;70388;42.698;23.324;2024-01-25T06:44:11;7.53;;;5.03;;
80930;SDS011;70388;42.698;23.324;2024-01-25T06:46:38;9.50;;;5.20;;
80930;SDS011;70388;42.698;23.324;2024-01-25T06:49:03;7.43;;;5.25;;
80930;SDS011;70388;42.698;23.324;2024-01-25T06:51:29;7.57;;;5.10;;
80930;SDS011;70388;42.698;23.324;2024-01-25T06:53:55;10.38;;;5.00;;
80930;SDS011;70388;42.698;23.324;2024-01-25T06:56:21;9.90;;;4.88;;
80930;SDS011;70388;42.698;23.324;2024-01-25T06:58:46;10.50;;;5.20;;
80930;SDS011;70388;42.698;23.324;2024-01-25T07:01:12;9.10;;;4.60;;
80930;SDS011;70388;42.698;23.324;2024-01-25T07:03:38;6.20;;;4.45;;
80930;SDS011;70388;42.698;23.324;2024-01-25T07:06:04;9.23;;;4.80;;
80930;SDS011;70388;42.698;23.324;2024-01-25T07:08:30;8.10;;;4.60;;
80930;SDS011;70388;42.698;23.324;2024-01-25T07:10:56;11.07;;;4.78;;
80930;SDS011;70388;42.698;23.324;2024-01-25T07:13:24;7.70;;;3.88;;
80930;SDS011;70388;42.698;23.324;2024-01-25T07:15:51;11.55;;;4.45;;
80930;SDS011;70388;42.698;23.324;2024-01-25T07:18:16;9.40;;;3.90;;
80930;SDS011;70388;42.698;23.324;2024-01-25T07:20:42;6.50;;;3.08;;
80930;SDS011;70388;42.698;23.324;2024-01-25T07:23:09;6.85;;;3.15;;
80930;SDS011;70388;42.698;23.324;2024-01-25T07:25:34;8.27;;;3.75;;
80930;SDS011;70388;42.698;23.324;2024-01-25T07:28:00;7.00;;;3.72;;
80930;SDS011;70388;42.698;23.324;2024-01-25T07:30:26;8.73;;;4.50;;
80930;SDS011;70388;42.698;23.324;2024-01-25T07:32:52;7.13;;;3.63;;
80930;SDS011;70388;42.698;23.324;2024-01-25T07:35:17;13.13;;;4.43;;
80930;SDS011;70388;42.698;23.324;2024-01-25T07:37:43;6.70;;;3.45;;
80930;SDS011;70388;42.698;23.324;2024-01-25T07:40:09;8.93;;;3.95;;
80930;SDS011;70388;42.698;23.324;2024-01-25T07:42:35;12.90;;;3.97;;
80930;SDS011;70388;42.698;23.324;2024-01-25T07:45:01;11.02;;;4.75;;
80930;SDS011;70388;42.698;23.324;2024-01-25T07:47:26;12.73;;;5.70;;
80930;SDS011;70388;42.698;23.324;2024-01-25T07:49:52;10.85;;;4.47;;
80930;SDS011;70388;42.698;23.324;2024-01-25T07:52:18;12.25;;;4.75;;
80930;SDS011;70388;42.698;23.324;2024-01-25T07:54:44;8.00;;;3.95;;
80930;SDS011;70388;42.698;23.324;2024-01-25T07:57:09;7.28;;;3.50;;
80930;SDS011;70388;42.698;23.324;2024-01-25T07:59:35;8.18;;;4.50;;
80930;SDS011;70388;42.698;23.324;2024-01-25T08:02:01;11.45;;;4.40;;
80930;SDS011;70388;42.698;23.324;2024-01-25T08:04:27;9.77;;;4.05;;
80930;SDS011;70388;42.698;23.324;2024-01-25T08:06:53;9.75;;;3.88;;
80930;SDS011;70388;42.698;23.324;2024-01-25T08:09:18;10.68;;;4.20;;
80930;SDS011;70388;42.698;23.324;2024-01-25T08:11:44;8.75;;;4.18;;
80930;SDS011;70388;42.698;23.324;2024-01-25T08:14:10;7.43;;;4.55;;
80930;SDS011;70388;42.698;23.324;2024-01-25T08:16:36;9.20;;;4.30;;
80930;SDS011;70388;42.698;23.324;2024-01-25T08:19:02;9.70;;;4.80;;
80930;SDS011;70388;42.698;23.324;2024-01-25T08:21:28;6.70;;;4.07;;
80930;SDS011;70388;42.698;23.324;2024-01-25T08:23:54;9.98;;;5.00;;
80930;SDS011;70388;42.698;23.324;2024-01-25T08:26:19;10.48;;;5.32;;
80930;SDS011;70388;42.698;23.324;2024-01-25T08:28:45;8.57;;;4.28;;
80930;SDS011;70388;42.698;23.324;2024-01-25T08:31:12;11.60;;;4.10;;
80930;SDS011;70388;42.698;23.324;2024-01-25T08:33:38;9.48;;;4.00;;
80930;SDS011;70388;42.698;23.324;2024-01-25T08:36:09;16.70;;;7.38;;
80930;SDS011;70388;42.698;23.324;2024-01-25T08:38:35;36.95;;;18.73;;
80930;SDS011;70388;42.698;23.324;2024-01-25T08:41:01;12.63;;;6.32;;
80930;SDS011;70388;42.698;23.324;2024-01-25T08:43:27;15.32;;;8.20;;
80930;SDS011;70388;42.698;23.324;2024-01-25T08:45:52;10.93;;;5.97;;
80930;SDS011;70388;42.698;23.324;2024-01-25T08:48:18;10.25;;;5.00;;
80930;SDS011;70388;42.698;23.324;2024-01-25T08:50:45;12.35;;;4.65;;
80930;SDS011;70388;42.698;23.324;2024-01-25T08:53:10;9.88;;;4.70;;
80930;SDS011;70388;42.698;23.324;2024-01-25T08:55:36;10.32;;;4.68;;
80930;SDS011;70388;42.698;23.324;2024-01-25T08:58:02;8.02;;;4.75;;
80930;SDS011;70388;42.698;23.324;2024-01-25T09:00:28;13.82;;;6.53;;
80930;SDS011;70388;42.698;23.324;2024-01-25T09:02:53;11.15;;;5.60;;
80930;SDS011;70388;42.698;23.324;2024-01-25T09:05:19;11.85;;;6.18;;
80930;SDS011;70388;42.698;23.324;2024-01-25T09:07:45;16.58;;;7.35;;
80930;SDS011;70388;42.698;23.324;2024-01-25T09:10:12;28.42;;;7.45;;
80930;SDS011;70388;42.698;23.324;2024-01-25T09:12:38;15.93;;;7.50;;
80930;SDS011;70388;42.698;23.324;2024-01-25T09:15:06;12.27;;;5.72;;
80930;SDS011;70388;42.698;23.324;2024-01-25T09:17:33;12.75;;;6.72;;
80930;SDS011;70388;42.698;23.324;2024-01-25T09:19:59;13.52;;;6.75;;
80930;SDS011;70388;42.698;23.324;2024-01-25T09:22:25;17.20;;;6.82;;
80930;SDS011;70388;42.698;23.324;2024-01-25T09:24:50;13.50;;;7.72;;
80930;SDS011;70388;42.698;23.324;2024-01-25T09:27:16;13.57;;;6.45;;
80930;SDS011;70388;42.698;23.324;2024-01-25T09:29:42;12.93;;;5.75;;
80930;SDS011;70388;42.698;23.324;2024-01-25T09:32:08;12.35;;;4.93;;
80930;SDS011;70388;42.698;23.324;2024-01-25T09:34:38;8.82;;;4.10;;
80930;SDS011;70388;42.698;23.324;2024-01-25T09:37:04;12.80;;;4.47;;
80930;SDS011;70388;42.698;23.324;2024-01-25T09:39:33;10.65;;;4.85;;
80930;SDS011;70388;42.698;23.324;2024-01-25T09:42:00;13.45;;;5.07;;
80930;SDS011;70388;42.698;23.324;2024-01-25T09:44:28;10.43;;;5.05;;
80930;SDS011;70388;42.698;23.324;2024-01-25T09:46:54;12.10;;;5.50;;
80930;SDS011;70388;42.698;23.324;2024-01-25T09:49:20;12.40;;;5.70;;
80930;SDS011;70388;42.698;23.324;2024-01-25T09:51:49;9.82;;;5.00;;
80930;SDS011;70388;42.698;23.324;2024-01-25T09:54:16;18.63;;;6.15;;
80930;SDS011;70388;42.698;23.324;2024-01-25T09:56:42;9.43;;;5.72;;
80930;SDS011;70388;42.698;23.324;2024-01-25T09:59:08;11.55;;;5.30;;
80930;SDS011;70388;42.698;23.324;2024-01-25T10:01:34;10.13;;;5.50;;
80930;SDS011;70388;42.698;23.324;2024-01-25T10:04:00;8.77;;;5.22;;
80930;SDS011;70388;42.698;23.324;2024-01-25T10:06:26;11.43;;;5.65;;
80930;SDS011;70388;42.698;23.324;2024-01-25T10:08:52;13.50;;;6.63;;
80930;SDS011;70388;42.698;23.324;2024-01-25T10:11:18;12.43;;;5.70;;
80930;SDS011;70388;42.698;23.324;2024-01-25T10:13:44;12.50;;;6.90;;
80930;SDS011;70388;42.698;23.324;2024-01-25T10:16:14;14.10;;;7.25;;
80930;SDS011;70388;42.698;23.324;2024-01-25T10:18:44;13.73;;;5.93;;
80930;SDS011;70388;42.698;23.324;2024-01-25T10:21:14;10.25;;;5.30;;
80930;SDS011;70388;42.698;23.324;2024-01-25T10:23:40;12.88;;;5.10;;
80930;SDS011;70388;42.698;23.324;2024-01-25T10:26:08;14.93;;;5.45;;
80930;SDS011;70388;42.698;23.324;2024-01-25T10:28:34;11.05;;;4.55;;
80930;SDS011;70388;42.698;23.324;2024-01-25T10:31:01;10.05;;;5.65;;
80930;SDS011;70388;42.698;23.324;2024-01-25T10:33:29;16.02;;;6.13;;
80930;SDS011;70388;42.698;23.324;2024-01-25T10:35:56;12.50;;;5.90;;
80930;SDS011;70388;42.698;23.324;2024-01-25T10:38:30;14.20;;;6.00;;
80930;SDS011;70388;42.698;23.324;2024-01-25T10:41:01;8.45;;;5.85;;
80930;SDS011;70388;42.698;23.324;2024-01-25T10:43:28;11.10;;;5.78;;
80930;SDS011;70388;42.698;23.324;2024-01-25T10:45:57;10.10;;;6.05;;
80930;SDS011;70388;42.698;23.324;2024-01-25T10:48:26;13.32;;;6.22;;
80930;SDS011;70388;42.698;23.324;2024-01-25T10:50:55;11.23;;;5.07;;
80930;SDS011;70388;42.698;23.324;2024-01-25T10:53:24;12.63;;;6.72;;
80930;SDS011;70388;42.698;23.324;2024-01-25T10:55:52;14.02;;;5.82;;
80930;SDS011;70388;42.698;23.324;2024-01-25T10:58:18;8.57;;;5.03;;
